sensor_id;sensor_type;location;lat;lon;timestamp;P1;durP1;ratioP1;P2;durP2;ratioP2
23088;SDS011;11713;48.506;8.966;2023-05-16T00:00:27;5.90;;;5.30;;
23088;SDS011;11713;48.506;8.966;2023-05-16T00:02:55;4.77;;;4.30;;
23088;SDS011;11713;48.506;8.966;2023-05-16T00:05:21;5.37;;;4.37;;
23088;SDS011;11713;48.506;8.966;2023-05-16T00:07:47;6.20;;;4.37;;
23088;SDS011;11713;48.506;8.966;2023-05-16T00:10:12;6.30;;;4.40;;
23088;SDS011;11713;48.506;8.966;2023-05-16T00:12:39;4.60;;;4.20;;
23088;SDS011;11713;48.506;8.966;2023-05-16T00:15:05;4.60;;;4.20;;
23088;SDS011;11713;48.506;8.966;2023-05-16T00:17:33;5.60;;;4.60;;
23088;SDS011;11713;48.506;8.966;2023-05-16T00:19:59;5.70;;;3.90;;
23088;SDS011;11713;48.506;8.966;2023-05-16T00:22:26;4.40;;;4.00;;
23088;SDS011;11713;48.506;8.966;2023-05-16T00:24:52;6.07;;;4.27;;
23088;SDS011;11713;48.506;8.966;2023-05-16T00:27:18;4.60;;;4.20;;
23088;SDS011;11713;48.506;8.966;2023-05-16T00:29:44;5.13;;;4.33;;
23088;SDS011;11713;48.506;8.966;2023-05-16T00:32:10;4.57;;;4.17;;
23088;SDS011;11713;48.506;8.966;2023-05-16T00:34:35;4.40;;;3.77;;
23088;SDS011;11713;48.506;8.966;2023-05-16T00:37:01;6.43;;;4.10;;
23088;SDS011;11713;48.506;8.966;2023-05-16T00:39:27;4.53;;;4.03;;
23088;SDS011;11713;48.506;8.966;2023-05-16T00:41:55;5.13;;;3.93;;
23088;SDS011;11713;48.506;8.966;2023-05-16T00:44:21;4.83;;;4.30;;
23088;SDS011;11713;48.506;8.966;2023-05-16T00:46:47;4.77;;;4.37;;
23088;SDS011;11713;48.506;8.966;2023-05-16T00:49:13;4.47;;;4.07;;
23088;SDS011;11713;48.506;8.966;2023-05-16T00:51:39;5.33;;;4.67;;
23088;SDS011;11713;48.506;8.966;2023-05-16T00:54:05;5.30;;;4.80;;
23088;SDS011;11713;48.506;8.966;2023-05-16T00:56:32;4.80;;;4.40;;
23088;SDS011;11713;48.506;8.966;2023-05-16T00:58:58;4.63;;;4.23;;
23088;SDS011;11713;48.506;8.966;2023-05-16T01:01:26;5.27;;;4.47;;
23088;SDS011;11713;48.506;8.966;2023-05-16T01:03:53;6.47;;;4.50;;
23088;SDS011;11713;48.506;8.966;2023-05-16T01:06:19;5.13;;;4.13;;
23088;SDS011;11713;48.506;8.966;2023-05-16T01:08:45;4.97;;;4.23;;
23088;SDS011;11713;48.506;8.966;2023-05-16T01:11:12;5.00;;;4.50;;
23088;SDS011;11713;48.506;8.966;2023-05-16T01:16:57;5.10;;;4.53;;
23088;SDS011;11713;48.506;8.966;2023-05-16T01:28:04;6.50;;;4.50;;
23088;SDS011;11713;48.506;8.966;2023-05-16T01:30:32;4.90;;;4.40;;
23088;SDS011;11713;48.506;8.966;2023-05-16T01:33:00;4.90;;;4.10;;
23088;SDS011;11713;48.506;8.966;2023-05-16T01:35:25;4.60;;;4.20;;
23088;SDS011;11713;48.506;8.966;2023-05-16T01:38:03;4.80;;;4.30;;
23088;SDS011;11713;48.506;8.966;2023-05-16T01:43:55;5.67;;;4.30;;
23088;SDS011;11713;48.506;8.966;2023-05-16T01:46:18;5.00;;;4.00;;
23088;SDS011;11713;48.506;8.966;2023-05-16T01:48:50;5.17;;;4.33;;
23088;SDS011;11713;48.506;8.966;2023-05-16T01:51:18;7.50;;;4.63;;
23088;SDS011;11713;48.506;8.966;2023-05-16T01:53:46;4.80;;;4.40;;
23088;SDS011;11713;48.506;8.966;2023-05-16T01:56:14;5.60;;;4.63;;
23088;SDS011;11713;48.506;8.966;2023-05-16T01:58:41;4.70;;;4.17;;
23088;SDS011;11713;48.506;8.966;2023-05-16T02:01:08;7.03;;;4.10;;
23088;SDS011;11713;48.506;8.966;2023-05-16T02:03:35;5.53;;;4.63;;
23088;SDS011;11713;48.506;8.966;2023-05-16T02:06:02;5.67;;;4.37;;
23088;SDS011;11713;48.506;8.966;2023-05-16T02:08:29;4.63;;;3.97;;
23088;SDS011;11713;48.506;8.966;2023-05-16T02:10:55;8.57;;;4.97;;
23088;SDS011;11713;48.506;8.966;2023-05-16T02:13:21;5.37;;;4.87;;
23088;SDS011;11713;48.506;8.966;2023-05-16T02:15:47;5.13;;;4.67;;
23088;SDS011;11713;48.506;8.966;2023-05-16T02:18:13;5.30;;;4.80;;
23088;SDS011;11713;48.506;8.966;2023-05-16T02:20:38;5.53;;;5.00;;
23088;SDS011;11713;48.506;8.966;2023-05-16T02:23:04;5.80;;;4.97;;
23088;SDS011;11713;48.506;8.966;2023-05-16T02:25:30;5.90;;;5.10;;
23088;SDS011;11713;48.506;8.966;2023-05-16T02:27:56;5.10;;;4.70;;
23088;SDS011;11713;48.506;8.966;2023-05-16T02:30:22;5.67;;;5.17;;
23088;SDS011;11713;48.506;8.966;2023-05-16T02:32:48;6.07;;;5.13;;
23088;SDS011;11713;48.506;8.966;2023-05-16T02:35:15;5.20;;;4.70;;
23088;SDS011;11713;48.506;8.966;2023-05-16T02:37:42;6.10;;;4.60;;
23088;SDS011;11713;48.506;8.966;2023-05-16T02:40:08;5.70;;;4.60;;
23088;SDS011;11713;48.506;8.966;2023-05-16T02:42:35;4.80;;;4.40;;
23088;SDS011;11713;48.506;8.966;2023-05-16T02:45:01;7.30;;;5.03;;
23088;SDS011;11713;48.506;8.966;2023-05-16T02:47:28;5.50;;;5.00;;
23088;SDS011;11713;48.506;8.966;2023-05-16T02:49:53;6.77;;;4.83;;
23088;SDS011;11713;48.506;8.966;2023-05-16T02:52:20;6.23;;;5.27;;
23088;SDS011;11713;48.506;8.966;2023-05-16T02:54:46;5.30;;;4.80;;
23088;SDS011;11713;48.506;8.966;2023-05-16T02:57:11;6.63;;;5.20;;
23088;SDS011;11713;48.506;8.966;2023-05-16T02:59:37;5.53;;;5.03;;
23088;SDS011;11713;48.506;8.966;2023-05-16T03:02:03;7.13;;;5.17;;
23088;SDS011;11713;48.506;8.966;2023-05-16T03:04:31;6.90;;;5.33;;
23088;SDS011;11713;48.506;8.966;2023-05-16T03:06:56;5.20;;;4.70;;
23088;SDS011;11713;48.506;8.966;2023-05-16T03:09:22;8.03;;;5.30;;
23088;SDS011;11713;48.506;8.966;2023-05-16T03:11:48;5.83;;;5.23;;
23088;SDS011;11713;48.506;8.966;2023-05-16T03:14:13;5.00;;;4.60;;
23088;SDS011;11713;48.506;8.966;2023-05-16T03:16:39;7.10;;;4.93;;
23088;SDS011;11713;48.506;8.966;2023-05-16T03:19:08;6.37;;;4.80;;
23088;SDS011;11713;48.506;8.966;2023-05-16T03:21:34;5.20;;;4.70;;
23088;SDS011;11713;48.506;8.966;2023-05-16T03:24:03;5.57;;;5.00;;
23088;SDS011;11713;48.506;8.966;2023-05-16T03:26:29;7.17;;;5.40;;
23088;SDS011;11713;48.506;8.966;2023-05-16T03:28:55;5.80;;;5.30;;
23088;SDS011;11713;48.506;8.966;2023-05-16T03:31:21;5.23;;;4.83;;
23088;SDS011;11713;48.506;8.966;2023-05-16T03:33:47;9.03;;;5.30;;
23088;SDS011;11713;48.506;8.966;2023-05-16T03:36:12;6.70;;;5.17;;
23088;SDS011;11713;48.506;8.966;2023-05-16T03:38:38;5.00;;;4.60;;
23088;SDS011;11713;48.506;8.966;2023-05-16T03:41:04;5.67;;;5.17;;
23088;SDS011;11713;48.506;8.966;2023-05-16T03:43:30;7.03;;;5.57;;
23088;SDS011;11713;48.506;8.966;2023-05-16T03:46:01;5.50;;;5.03;;
23088;SDS011;11713;48.506;8.966;2023-05-16T03:48:28;7.07;;;5.70;;
23088;SDS011;11713;48.506;8.966;2023-05-16T03:50:54;6.93;;;5.73;;
23088;SDS011;11713;48.506;8.966;2023-05-16T03:53:29;6.27;;;5.67;;
23088;SDS011;11713;48.506;8.966;2023-05-16T03:56:00;6.70;;;5.83;;
23088;SDS011;11713;48.506;8.966;2023-05-16T03:58:29;6.47;;;5.87;;
23088;SDS011;11713;48.506;8.966;2023-05-16T04:00:55;6.87;;;6.20;;
23088;SDS011;11713;48.506;8.966;2023-05-16T04:03:21;6.50;;;5.90;;
23088;SDS011;11713;48.506;8.966;2023-05-16T04:05:53;8.20;;;6.07;;
23088;SDS011;11713;48.506;8.966;2023-05-16T04:08:20;7.03;;;6.33;;
23088;SDS011;11713;48.506;8.966;2023-05-16T04:10:46;7.77;;;6.33;;
23088;SDS011;11713;48.506;8.966;2023-05-16T04:13:12;8.60;;;6.93;;
23088;SDS011;11713;48.506;8.966;2023-05-16T04:15:38;7.53;;;6.77;;
23088;SDS011;11713;48.506;8.966;2023-05-16T04:18:04;7.07;;;6.37;;
23088;SDS011;11713;48.506;8.966;2023-05-16T04:20:30;7.67;;;6.97;;
23088;SDS011;11713;48.506;8.966;2023-05-16T04:22:56;7.83;;;6.57;;
23088;SDS011;11713;48.506;8.966;2023-05-16T04:25:22;7.77;;;6.77;;
23088;SDS011;11713;48.506;8.966;2023-05-16T04:27:48;8.93;;;6.93;;
23088;SDS011;11713;48.506;8.966;2023-05-16T04:30:14;8.33;;;7.40;;
23088;SDS011;11713;48.506;8.966;2023-05-16T04:32:40;9.80;;;8.20;;
23088;SDS011;11713;48.506;8.966;2023-05-16T04:35:06;10.03;;;8.07;;
23088;SDS011;11713;48.506;8.966;2023-05-16T04:37:33;10.13;;;8.93;;
23088;SDS011;11713;48.506;8.966;2023-05-16T04:40:00;12.90;;;9.10;;
23088;SDS011;11713;48.506;8.966;2023-05-16T04:42:26;10.93;;;8.87;;
23088;SDS011;11713;48.506;8.966;2023-05-16T04:44:51;12.07;;;9.30;;
23088;SDS011;11713;48.506;8.966;2023-05-16T04:47:18;11.47;;;9.07;;
23088;SDS011;11713;48.506;8.966;2023-05-16T04:49:44;12.77;;;9.83;;
23088;SDS011;11713;48.506;8.966;2023-05-16T04:52:09;11.93;;;10.00;;
23088;SDS011;11713;48.506;8.966;2023-05-16T04:54:37;12.30;;;10.57;;
23088;SDS011;11713;48.506;8.966;2023-05-16T04:57:03;16.83;;;11.90;;
23088;SDS011;11713;48.506;8.966;2023-05-16T04:59:30;16.63;;;12.00;;
23088;SDS011;11713;48.506;8.966;2023-05-16T05:01:55;34.33;;;23.87;;
23088;SDS011;11713;48.506;8.966;2023-05-16T05:04:21;34.13;;;23.97;;
23088;SDS011;11713;48.506;8.966;2023-05-16T05:06:47;29.13;;;20.83;;
23088;SDS011;11713;48.506;8.966;2023-05-16T05:09:13;35.47;;;23.70;;
23088;SDS011;11713;48.506;8.966;2023-05-16T05:11:39;34.40;;;24.37;;
23088;SDS011;11713;48.506;8.966;2023-05-16T05:14:04;38.70;;;26.70;;
23088;SDS011;11713;48.506;8.966;2023-05-16T05:16:30;47.90;;;31.73;;
23088;SDS011;11713;48.506;8.966;2023-05-16T05:18:58;42.93;;;29.27;;
23088;SDS011;11713;48.506;8.966;2023-05-16T05:21:24;43.27;;;30.93;;
23088;SDS011;11713;48.506;8.966;2023-05-16T05:23:50;48.27;;;32.93;;
23088;SDS011;11713;48.506;8.966;2023-05-16T05:26:16;49.63;;;34.07;;
23088;SDS011;11713;48.506;8.966;2023-05-16T05:28:42;51.70;;;33.97;;
23088;SDS011;11713;48.506;8.966;2023-05-16T05:31:08;46.87;;;32.83;;
23088;SDS011;11713;48.506;8.966;2023-05-16T05:33:33;44.87;;;31.90;;
23088;SDS011;11713;48.506;8.966;2023-05-16T05:35:59;49.07;;;32.77;;
23088;SDS011;11713;48.506;8.966;2023-05-16T05:38:25;52.63;;;34.57;;
23088;SDS011;11713;48.506;8.966;2023-05-16T05:40:51;50.20;;;32.97;;
23088;SDS011;11713;48.506;8.966;2023-05-16T05:43:17;49.30;;;32.10;;
23088;SDS011;11713;48.506;8.966;2023-05-16T05:45:42;51.07;;;35.03;;
23088;SDS011;11713;48.506;8.966;2023-05-16T05:48:08;52.03;;;33.47;;
23088;SDS011;11713;48.506;8.966;2023-05-16T05:50:35;49.87;;;34.00;;
23088;SDS011;11713;48.506;8.966;2023-05-16T05:53:02;45.77;;;32.90;;
23088;SDS011;11713;48.506;8.966;2023-05-16T05:55:27;50.37;;;34.23;;
23088;SDS011;11713;48.506;8.966;2023-05-16T05:57:53;47.13;;;32.23;;
23088;SDS011;11713;48.506;8.966;2023-05-16T06:00:19;45.70;;;32.77;;
23088;SDS011;11713;48.506;8.966;2023-05-16T06:02:45;51.43;;;33.43;;
23088;SDS011;11713;48.506;8.966;2023-05-16T06:05:12;50.73;;;34.13;;
23088;SDS011;11713;48.506;8.966;2023-05-16T06:07:38;55.00;;;34.83;;
23088;SDS011;11713;48.506;8.966;2023-05-16T06:10:04;49.60;;;32.97;;
23088;SDS011;11713;48.506;8.966;2023-05-16T06:12:32;50.63;;;34.23;;
23088;SDS011;11713;48.506;8.966;2023-05-16T06:14:58;49.40;;;32.87;;
23088;SDS011;11713;48.506;8.966;2023-05-16T06:17:24;50.30;;;34.17;;
23088;SDS011;11713;48.506;8.966;2023-05-16T06:19:50;51.70;;;34.00;;
23088;SDS011;11713;48.506;8.966;2023-05-16T06:22:16;50.20;;;33.70;;
23088;SDS011;11713;48.506;8.966;2023-05-16T06:24:42;48.63;;;32.60;;
23088;SDS011;11713;48.506;8.966;2023-05-16T06:27:08;50.37;;;34.03;;
23088;SDS011;11713;48.506;8.966;2023-05-16T06:29:34;49.83;;;33.40;;
23088;SDS011;11713;48.506;8.966;2023-05-16T06:32:00;49.83;;;34.90;;
23088;SDS011;11713;48.506;8.966;2023-05-16T06:34:26;48.07;;;32.67;;
23088;SDS011;11713;48.506;8.966;2023-05-16T06:36:52;44.57;;;30.97;;
23088;SDS011;11713;48.506;8.966;2023-05-16T06:39:19;49.57;;;33.77;;
23088;SDS011;11713;48.506;8.966;2023-05-16T06:41:45;49.50;;;33.20;;
23088;SDS011;11713;48.506;8.966;2023-05-16T06:44:14;46.30;;;32.63;;
23088;SDS011;11713;48.506;8.966;2023-05-16T06:46:40;51.37;;;33.60;;
23088;SDS011;11713;48.506;8.966;2023-05-16T06:49:06;47.30;;;32.13;;
23088;SDS011;11713;48.506;8.966;2023-05-16T06:51:32;46.03;;;30.93;;
23088;SDS011;11713;48.506;8.966;2023-05-16T06:53:57;45.03;;;31.73;;
23088;SDS011;11713;48.506;8.966;2023-05-16T06:56:23;46.87;;;31.93;;
23088;SDS011;11713;48.506;8.966;2023-05-16T06:58:50;43.53;;;30.57;;
23088;SDS011;11713;48.506;8.966;2023-05-16T07:01:15;43.07;;;31.07;;
23088;SDS011;11713;48.506;8.966;2023-05-16T07:03:41;43.20;;;30.40;;
23088;SDS011;11713;48.506;8.966;2023-05-16T07:06:07;46.13;;;31.30;;
23088;SDS011;11713;48.506;8.966;2023-05-16T07:08:33;42.43;;;30.47;;
23088;SDS011;11713;48.506;8.966;2023-05-16T07:11:01;45.17;;;31.10;;
23088;SDS011;11713;48.506;8.966;2023-05-16T07:13:27;42.10;;;29.07;;
23088;SDS011;11713;48.506;8.966;2023-05-16T07:15:52;42.67;;;30.33;;
23088;SDS011;11713;48.506;8.966;2023-05-16T07:18:18;40.13;;;27.93;;
23088;SDS011;11713;48.506;8.966;2023-05-16T07:20:44;37.50;;;26.90;;
23088;SDS011;11713;48.506;8.966;2023-05-16T07:23:10;37.67;;;27.33;;
23088;SDS011;11713;48.506;8.966;2023-05-16T07:25:36;37.63;;;26.27;;
23088;SDS011;11713;48.506;8.966;2023-05-16T07:28:02;36.83;;;26.07;;
23088;SDS011;11713;48.506;8.966;2023-05-16T07:30:28;36.63;;;26.17;;
23088;SDS011;11713;48.506;8.966;2023-05-16T07:32:54;36.73;;;26.47;;
23088;SDS011;11713;48.506;8.966;2023-05-16T07:35:20;31.67;;;24.33;;
23088;SDS011;11713;48.506;8.966;2023-05-16T07:37:46;32.50;;;24.23;;
23088;SDS011;11713;48.506;8.966;2023-05-16T07:40:12;33.33;;;24.17;;
23088;SDS011;11713;48.506;8.966;2023-05-16T07:42:38;31.73;;;23.93;;
23088;SDS011;11713;48.506;8.966;2023-05-16T07:45:04;31.77;;;22.93;;
23088;SDS011;11713;48.506;8.966;2023-05-16T07:47:31;33.03;;;23.93;;
23088;SDS011;11713;48.506;8.966;2023-05-16T07:49:57;32.17;;;22.67;;
23088;SDS011;11713;48.506;8.966;2023-05-16T07:52:23;27.87;;;21.87;;
23088;SDS011;11713;48.506;8.966;2023-05-16T07:54:49;29.03;;;22.17;;
23088;SDS011;11713;48.506;8.966;2023-05-16T07:57:14;30.37;;;21.03;;
23088;SDS011;11713;48.506;8.966;2023-05-16T07:59:41;27.03;;;20.97;;
23088;SDS011;11713;48.506;8.966;2023-05-16T08:02:07;24.90;;;19.00;;
23088;SDS011;11713;48.506;8.966;2023-05-16T08:04:34;24.37;;;18.60;;
23088;SDS011;11713;48.506;8.966;2023-05-16T08:07:00;23.60;;;18.47;;
23088;SDS011;11713;48.506;8.966;2023-05-16T08:09:26;25.73;;;17.83;;
23088;SDS011;11713;48.506;8.966;2023-05-16T08:11:52;24.40;;;18.07;;
23088;SDS011;11713;48.506;8.966;2023-05-16T08:14:18;22.23;;;17.40;;
23088;SDS011;11713;48.506;8.966;2023-05-16T08:16:43;21.50;;;16.83;;
23088;SDS011;11713;48.506;8.966;2023-05-16T08:19:09;25.07;;;18.03;;
23088;SDS011;11713;48.506;8.966;2023-05-16T08:21:35;22.83;;;16.57;;
23088;SDS011;11713;48.506;8.966;2023-05-16T08:24:01;21.80;;;16.63;;
23088;SDS011;11713;48.506;8.966;2023-05-16T08:26:27;21.77;;;15.90;;
23088;SDS011;11713;48.506;8.966;2023-05-16T08:28:53;18.93;;;14.73;;
23088;SDS011;11713;48.506;8.966;2023-05-16T08:31:18;18.80;;;14.27;;
23088;SDS011;11713;48.506;8.966;2023-05-16T08:33:45;17.87;;;14.30;;
23088;SDS011;11713;48.506;8.966;2023-05-16T08:36:11;18.40;;;14.27;;
23088;SDS011;11713;48.506;8.966;2023-05-16T08:38:36;19.20;;;14.53;;
23088;SDS011;11713;48.506;8.966;2023-05-16T08:41:02;18.77;;;14.47;;
23088;SDS011;11713;48.506;8.966;2023-05-16T08:43:28;18.73;;;14.33;;
23088;SDS011;11713;48.506;8.966;2023-05-16T08:45:54;15.73;;;13.03;;
23088;SDS011;11713;48.506;8.966;2023-05-16T08:48:21;17.67;;;14.03;;
23088;SDS011;11713;48.506;8.966;2023-05-16T08:50:48;18.03;;;13.87;;
23088;SDS011;11713;48.506;8.966;2023-05-16T08:53:16;15.23;;;12.60;;
23088;SDS011;11713;48.506;8.966;2023-05-16T08:55:46;16.20;;;12.83;;
23088;SDS011;11713;48.506;8.966;2023-05-16T08:58:13;14.90;;;12.47;;
23088;SDS011;11713;48.506;8.966;2023-05-16T09:00:39;14.50;;;11.73;;
23088;SDS011;11713;48.506;8.966;2023-05-16T09:03:06;15.17;;;12.10;;
23088;SDS011;11713;48.506;8.966;2023-05-16T09:05:32;13.13;;;11.10;;
23088;SDS011;11713;48.506;8.966;2023-05-16T09:07:58;13.40;;;11.60;;
23088;SDS011;11713;48.506;8.966;2023-05-16T09:10:24;14.73;;;12.03;;
23088;SDS011;11713;48.506;8.966;2023-05-16T09:12:50;15.73;;;13.10;;
23088;SDS011;11713;48.506;8.966;2023-05-16T09:15:17;15.33;;;13.20;;
23088;SDS011;11713;48.506;8.966;2023-05-16T09:17:44;15.43;;;12.70;;
23088;SDS011;11713;48.506;8.966;2023-05-16T09:20:11;18.30;;;14.13;;
23088;SDS011;11713;48.506;8.966;2023-05-16T09:22:51;17.63;;;13.90;;
23088;SDS011;11713;48.506;8.966;2023-05-16T09:25:19;18.57;;;14.83;;
23088;SDS011;11713;48.506;8.966;2023-05-16T09:27:46;19.67;;;16.13;;
23088;SDS011;11713;48.506;8.966;2023-05-16T09:30:15;23.17;;;16.67;;
23088;SDS011;11713;48.506;8.966;2023-05-16T09:32:52;22.13;;;16.33;;
23088;SDS011;11713;48.506;8.966;2023-05-16T09:35:18;22.60;;;16.07;;
23088;SDS011;11713;48.506;8.966;2023-05-16T09:37:45;21.97;;;16.93;;
23088;SDS011;11713;48.506;8.966;2023-05-16T09:40:13;22.20;;;17.03;;
23088;SDS011;11713;48.506;8.966;2023-05-16T09:42:39;22.27;;;16.57;;
23088;SDS011;11713;48.506;8.966;2023-05-16T09:45:06;20.63;;;16.27;;
23088;SDS011;11713;48.506;8.966;2023-05-16T09:47:35;23.97;;;17.47;;
23088;SDS011;11713;48.506;8.966;2023-05-16T09:50:09;23.33;;;17.87;;
23088;SDS011;11713;48.506;8.966;2023-05-16T09:52:37;23.50;;;18.40;;
23088;SDS011;11713;48.506;8.966;2023-05-16T09:55:05;27.27;;;17.73;;
23088;SDS011;11713;48.506;8.966;2023-05-16T09:57:35;24.90;;;17.93;;
23088;SDS011;11713;48.506;8.966;2023-05-16T10:00:03;22.27;;;17.17;;
23088;SDS011;11713;48.506;8.966;2023-05-16T10:02:35;24.50;;;17.77;;
23088;SDS011;11713;48.506;8.966;2023-05-16T10:05:05;22.60;;;18.03;;
23088;SDS011;11713;48.506;8.966;2023-05-16T10:07:32;26.07;;;17.60;;
23088;SDS011;11713;48.506;8.966;2023-05-16T10:10:05;22.03;;;18.07;;
23088;SDS011;11713;48.506;8.966;2023-05-16T10:12:33;25.07;;;18.73;;
23088;SDS011;11713;48.506;8.966;2023-05-16T10:15:01;23.10;;;18.23;;
23088;SDS011;11713;48.506;8.966;2023-05-16T10:17:29;23.27;;;18.23;;
23088;SDS011;11713;48.506;8.966;2023-05-16T10:20:04;23.23;;;18.77;;
23088;SDS011;11713;48.506;8.966;2023-05-16T10:22:33;23.33;;;17.13;;
23088;SDS011;11713;48.506;8.966;2023-05-16T10:25:07;22.13;;;16.77;;
23088;SDS011;11713;48.506;8.966;2023-05-16T10:27:37;22.00;;;17.37;;
23088;SDS011;11713;48.506;8.966;2023-05-16T10:30:04;22.70;;;16.83;;
23088;SDS011;11713;48.506;8.966;2023-05-16T10:32:32;21.87;;;17.00;;
23088;SDS011;11713;48.506;8.966;2023-05-16T10:34:59;23.50;;;17.40;;
23088;SDS011;11713;48.506;8.966;2023-05-16T10:37:27;22.00;;;16.70;;
23088;SDS011;11713;48.506;8.966;2023-05-16T10:39:54;20.30;;;15.80;;
23088;SDS011;11713;48.506;8.966;2023-05-16T10:42:20;20.70;;;16.13;;
23088;SDS011;11713;48.506;8.966;2023-05-16T10:44:46;19.03;;;14.77;;
23088;SDS011;11713;48.506;8.966;2023-05-16T10:47:12;23.73;;;16.57;;
23088;SDS011;11713;48.506;8.966;2023-05-16T10:49:44;23.17;;;16.20;;
23088;SDS011;11713;48.506;8.966;2023-05-16T10:52:11;21.47;;;15.50;;
23088;SDS011;11713;48.506;8.966;2023-05-16T10:54:43;20.50;;;15.40;;
23088;SDS011;11713;48.506;8.966;2023-05-16T10:57:16;20.73;;;15.13;;
23088;SDS011;11713;48.506;8.966;2023-05-16T10:59:47;21.90;;;15.93;;
23088;SDS011;11713;48.506;8.966;2023-05-16T11:02:27;18.47;;;14.77;;
23088;SDS011;11713;48.506;8.966;2023-05-16T11:05:01;19.17;;;14.27;;
23088;SDS011;11713;48.506;8.966;2023-05-16T11:07:31;17.07;;;13.80;;
23088;SDS011;11713;48.506;8.966;2023-05-16T11:12:49;18.33;;;13.33;;
23088;SDS011;11713;48.506;8.966;2023-05-16T11:15:17;18.67;;;14.63;;
23088;SDS011;11713;48.506;8.966;2023-05-16T11:17:44;18.93;;;14.63;;
23088;SDS011;11713;48.506;8.966;2023-05-16T11:20:24;20.30;;;15.77;;
23088;SDS011;11713;48.506;8.966;2023-05-16T11:28:19;19.40;;;15.27;;
23088;SDS011;11713;48.506;8.966;2023-05-16T11:30:50;20.87;;;15.17;;
23088;SDS011;11713;48.506;8.966;2023-05-16T11:33:19;21.50;;;14.20;;
23088;SDS011;11713;48.506;8.966;2023-05-16T11:36:02;17.60;;;13.17;;
23088;SDS011;11713;48.506;8.966;2023-05-16T11:38:29;17.93;;;13.73;;
23088;SDS011;11713;48.506;8.966;2023-05-16T11:41:03;17.50;;;13.77;;
23088;SDS011;11713;48.506;8.966;2023-05-16T11:43:36;17.33;;;12.43;;
23088;SDS011;11713;48.506;8.966;2023-05-16T11:46:03;15.87;;;11.80;;
23088;SDS011;11713;48.506;8.966;2023-05-16T11:48:29;13.33;;;10.63;;
23088;SDS011;11713;48.506;8.966;2023-05-16T11:50:55;16.33;;;11.17;;
23088;SDS011;11713;48.506;8.966;2023-05-16T11:53:21;13.10;;;9.47;;
23088;SDS011;11713;48.506;8.966;2023-05-16T11:55:48;10.53;;;8.67;;
23088;SDS011;11713;48.506;8.966;2023-05-16T11:58:17;10.17;;;8.20;;
23088;SDS011;11713;48.506;8.966;2023-05-16T12:00:48;9.63;;;7.97;;
23088;SDS011;11713;48.506;8.966;2023-05-16T12:03:15;10.67;;;8.17;;
23088;SDS011;11713;48.506;8.966;2023-05-16T12:05:51;9.87;;;7.10;;
23088;SDS011;11713;48.506;8.966;2023-05-16T12:08:18;12.27;;;8.43;;
23088;SDS011;11713;48.506;8.966;2023-05-16T12:10:47;11.07;;;8.43;;
23088;SDS011;11713;48.506;8.966;2023-05-16T12:13:15;10.57;;;8.60;;
23088;SDS011;11713;48.506;8.966;2023-05-16T12:15:41;11.00;;;8.73;;
23088;SDS011;11713;48.506;8.966;2023-05-16T12:18:08;12.80;;;9.10;;
23088;SDS011;11713;48.506;8.966;2023-05-16T12:20:35;13.07;;;10.10;;
23088;SDS011;11713;48.506;8.966;2023-05-16T12:23:01;14.43;;;10.40;;
23088;SDS011;11713;48.506;8.966;2023-05-16T12:25:29;13.57;;;10.73;;
23088;SDS011;11713;48.506;8.966;2023-05-16T12:28:06;13.67;;;10.10;;
23088;SDS011;11713;48.506;8.966;2023-05-16T12:30:41;12.87;;;10.33;;
23088;SDS011;11713;48.506;8.966;2023-05-16T12:33:13;13.57;;;10.27;;
23088;SDS011;11713;48.506;8.966;2023-05-16T12:35:40;15.00;;;11.30;;
23088;SDS011;11713;48.506;8.966;2023-05-16T12:38:08;14.97;;;11.03;;
23088;SDS011;11713;48.506;8.966;2023-05-16T12:40:39;14.43;;;11.43;;
23088;SDS011;11713;48.506;8.966;2023-05-16T12:43:13;12.97;;;9.80;;
23088;SDS011;11713;48.506;8.966;2023-05-16T12:45:51;11.40;;;9.57;;
23088;SDS011;11713;48.506;8.966;2023-05-16T12:48:20;12.20;;;9.80;;
23088;SDS011;11713;48.506;8.966;2023-05-16T12:50:56;12.67;;;8.97;;
23088;SDS011;11713;48.506;8.966;2023-05-16T12:53:45;11.80;;;8.37;;
23088;SDS011;11713;48.506;8.966;2023-05-16T12:56:13;10.90;;;8.30;;
23088;SDS011;11713;48.506;8.966;2023-05-16T12:58:39;11.27;;;8.87;;
23088;SDS011;11713;48.506;8.966;2023-05-16T13:01:07;13.20;;;8.60;;
23088;SDS011;11713;48.506;8.966;2023-05-16T13:03:34;9.87;;;8.30;;
23088;SDS011;11713;48.506;8.966;2023-05-16T13:06:01;12.13;;;8.63;;
23088;SDS011;11713;48.506;8.966;2023-05-16T13:08:29;10.67;;;8.37;;
23088;SDS011;11713;48.506;8.966;2023-05-16T13:10:56;7.73;;;6.43;;
23088;SDS011;11713;48.506;8.966;2023-05-16T13:13:21;5.10;;;4.60;;
23088;SDS011;11713;48.506;8.966;2023-05-16T13:15:47;4.50;;;4.10;;
23088;SDS011;11713;48.506;8.966;2023-05-16T13:18:13;5.40;;;4.10;;
23088;SDS011;11713;48.506;8.966;2023-05-16T13:20:39;6.27;;;4.20;;
23088;SDS011;11713;48.506;8.966;2023-05-16T13:23:06;6.40;;;4.00;;
23088;SDS011;11713;48.506;8.966;2023-05-16T13:25:32;4.70;;;4.00;;
23088;SDS011;11713;48.506;8.966;2023-05-16T13:27:58;6.10;;;4.10;;
23088;SDS011;11713;48.506;8.966;2023-05-16T13:30:24;4.53;;;3.93;;
23088;SDS011;11713;48.506;8.966;2023-05-16T13:32:50;4.20;;;3.80;;
23088;SDS011;11713;48.506;8.966;2023-05-16T13:35:18;5.07;;;4.07;;
23088;SDS011;11713;48.506;8.966;2023-05-16T13:37:44;5.87;;;4.50;;
23088;SDS011;11713;48.506;8.966;2023-05-16T13:40:10;5.80;;;4.77;;
23088;SDS011;11713;48.506;8.966;2023-05-16T13:42:36;6.73;;;4.77;;
23088;SDS011;11713;48.506;8.966;2023-05-16T13:45:03;5.17;;;4.67;;
23088;SDS011;11713;48.506;8.966;2023-05-16T13:47:30;6.97;;;4.87;;
23088;SDS011;11713;48.506;8.966;2023-05-16T13:50:01;8.20;;;5.20;;
23088;SDS011;11713;48.506;8.966;2023-05-16T13:52:32;6.03;;;4.60;;
23088;SDS011;11713;48.506;8.966;2023-05-16T13:54:57;5.97;;;4.70;;
23088;SDS011;11713;48.506;8.966;2023-05-16T13:57:23;5.30;;;4.40;;
23088;SDS011;11713;48.506;8.966;2023-05-16T13:59:49;5.73;;;4.90;;
23088;SDS011;11713;48.506;8.966;2023-05-16T14:02:15;6.47;;;4.87;;
23088;SDS011;11713;48.506;8.966;2023-05-16T14:04:40;6.50;;;4.17;;
23088;SDS011;11713;48.506;8.966;2023-05-16T14:07:07;5.47;;;4.43;;
23088;SDS011;11713;48.506;8.966;2023-05-16T14:09:33;5.20;;;4.70;;
23088;SDS011;11713;48.506;8.966;2023-05-16T14:12:03;4.57;;;4.17;;
23088;SDS011;11713;48.506;8.966;2023-05-16T14:14:31;6.20;;;4.47;;
23088;SDS011;11713;48.506;8.966;2023-05-16T14:17:00;6.13;;;4.43;;
23088;SDS011;11713;48.506;8.966;2023-05-16T14:19:26;4.93;;;4.37;;
23088;SDS011;11713;48.506;8.966;2023-05-16T14:21:51;6.27;;;3.90;;
23088;SDS011;11713;48.506;8.966;2023-05-16T14:24:17;4.00;;;3.60;;
23088;SDS011;11713;48.506;8.966;2023-05-16T14:26:43;4.10;;;3.17;;
23088;SDS011;11713;48.506;8.966;2023-05-16T14:29:09;3.70;;;3.30;;
23088;SDS011;11713;48.506;8.966;2023-05-16T14:31:36;4.90;;;3.10;;
23088;SDS011;11713;48.506;8.966;2023-05-16T14:34:02;3.77;;;3.03;;
23088;SDS011;11713;48.506;8.966;2023-05-16T14:36:28;4.23;;;3.20;;
23088;SDS011;11713;48.506;8.966;2023-05-16T14:38:54;3.83;;;3.13;;
23088;SDS011;11713;48.506;8.966;2023-05-16T14:41:20;4.20;;;3.10;;
23088;SDS011;11713;48.506;8.966;2023-05-16T14:43:46;4.90;;;3.13;;
23088;SDS011;11713;48.506;8.966;2023-05-16T14:46:12;3.77;;;2.83;;
23088;SDS011;11713;48.506;8.966;2023-05-16T14:48:38;4.70;;;3.03;;
23088;SDS011;11713;48.506;8.966;2023-05-16T14:51:04;4.80;;;3.20;;
23088;SDS011;11713;48.506;8.966;2023-05-16T14:53:31;2.97;;;2.53;;
23088;SDS011;11713;48.506;8.966;2023-05-16T14:55:57;6.33;;;2.90;;